Urk, Netherlands
Current Conditions -  °F | °C
As of 7:40 AM on Tuesday 21 Oct 2014 (Local Time) from EHKD Reporting Station
Light Rain Light Rain  
Wind Chill: 59°   Ceiling: 4000
Heat Index: 59°   Visibility: 6mi
Dew Point: 54°   Wind: 20mph
Humidity: 82%   Direction: 220°SW
Pressure: 29.59"   Gusts: NA
Location:  52.66°N, 5.6°E
Report Text: EHKD 210540Z AUTO 22017KT 9999 -RA FEW020 SCT023 BKN040 15/12 Q1002 WHT 22020G34KT 9999 FEW015 SCT020 BKN040 BECMG 25020G35KT BKN015 OVC020
Loading
Personal Weather Stations






























Interactive Weather Map
Tropical Storm Tracking
New forecast layout! Learn more

10-Day Weather Forecast

Advertisements
Track Severe Weather on mobile